Time,TemperatureF,DewpointF,PressureIn,WindDirection,WindDirectionDegrees,WindSpeedMPH,WindSpeedGustMPH,Humidity,HourlyPrecipIn,Conditions,Clouds,dailyrainin,SolarRadiationWatts/m^2,SoftwareType,DateUTC
2013-09-15 00:02:00,54.0,42.0,-100.00,North,358,10.0,15.0,63,0.00,,,0.00,0.000000,,2013-09-15 06:02:00,
2013-09-15 00:42:00,53.0,42.0,-100.00,North,1,11.0,16.0,65,0.00,,,0.00,0.000000,,2013-09-15 06:42:00,
2013-09-15 00:52:00,53.0,42.0,-100.00,North,1,11.0,16.0,65,0.00,,,0.00,0.000000,,2013-09-15 06:52:00,
2013-09-15 01:02:00,53.0,42.0,-100.00,North,1,11.0,16.0,65,0.00,,,0.00,0.000000,,2013-09-15 07:02:00,
2013-09-15 01:42:00,52.0,42.0,-100.00,North,8,14.0,20.0,68,0.00,,,0.00,0.000000,,2013-09-15 07:42:00,
2013-09-15 01:52:00,52.0,42.0,-100.00,North,8,14.0,20.0,68,0.00,,,0.00,0.000000,,2013-09-15 07:52:00,
2013-09-15 02:02:00,52.0,42.0,-100.00,North,8,14.0,20.0,68,0.00,,,0.00,0.000000,,2013-09-15 08:02:00,
2013-09-15 02:43:00,53.0,42.0,-100.00,NNE,20,13.0,18.0,67,0.00,,,0.00,0.000000,,2013-09-15 08:43:00,
2013-09-15 02:52:00,53.0,42.0,-100.00,NNE,20,13.0,18.0,67,0.00,,,0.00,0.000000,,2013-09-15 08:52:00,
2013-09-15 03:02:00,53.0,42.0,-100.00,NNE,20,13.0,18.0,67,0.00,,,0.00,0.000000,,2013-09-15 09:02:00,
2013-09-15 03:44:00,53.0,43.0,-100.00,NNE,30,12.0,17.0,69,0.00,,,0.00,0.000000,,2013-09-15 09:44:00,
2013-09-15 03:53:00,53.0,43.0,-100.00,NNE,30,12.0,17.0,69,0.00,,,0.00,0.000000,,2013-09-15 09:53:00,
2013-09-15 04:03:00,53.0,43.0,-100.00,NNE,30,12.0,17.0,69,0.00,,,0.00,0.000000,,2013-09-15 10:03:00,
2013-09-15 04:43:00,52.0,42.0,-100.00,NNE,29,8.0,16.0,69,0.00,,,0.00,0.000000,,2013-09-15 10:43:00,
2013-09-15 04:53:00,52.0,42.0,-100.00,NNE,29,8.0,16.0,69,0.00,,,0.00,0.000000,,2013-09-15 10:53:00,
2013-09-15 05:02:00,52.0,42.0,-100.00,NNE,29,8.0,16.0,69,0.00,,,0.00,0.000000,,2013-09-15 11:02:00,
2013-09-15 05:42:00,53.0,43.0,-100.00,NE,50,7.0,11.0,68,0.00,,,0.00,0.000000,,2013-09-15 11:42:00,
2013-09-15 05:52:00,53.0,43.0,-100.00,NE,50,7.0,11.0,68,0.00,,,0.00,0.000000,,2013-09-15 11:52:00,
2013-09-15 06:02:00,53.0,43.0,-100.00,NE,50,7.0,11.0,68,0.00,,,0.00,0.000000,,2013-09-15 12:02:00,
2013-09-15 06:42:00,52.0,43.0,-100.00,NNE,19,7.0,9.0,70,0.00,,,0.00,0.000000,,2013-09-15 12:42:00,
2013-09-15 06:52:00,52.0,43.0,-100.00,NNE,19,7.0,9.0,70,0.00,,,0.00,0.000000,,2013-09-15 12:52:00,
2013-09-15 07:01:00,52.0,43.0,-100.00,NNE,19,7.0,9.0,70,0.00,,,0.00,0.000000,,2013-09-15 13:01:00,
2013-09-15 07:42:00,51.0,43.0,-100.00,NNE,14,8.0,10.0,74,0.00,,,0.00,0.000000,,2013-09-15 13:42:00,
2013-09-15 07:53:00,51.0,43.0,-100.00,NNE,14,8.0,10.0,74,0.00,,,0.00,0.000000,,2013-09-15 13:53:00,
2013-09-15 08:02:00,51.0,43.0,-100.00,NNE,14,8.0,10.0,74,0.00,,,0.00,0.000000,,2013-09-15 14:02:00,
2013-09-15 13:42:00,67.0,47.0,-100.00,ESE,102,8.0,20.0,48,0.00,,,0.00,548.000000,,2013-09-15 19:42:00,
2013-09-15 13:52:00,67.0,47.0,-100.00,ESE,102,8.0,20.0,48,0.00,,,0.00,548.000000,,2013-09-15 19:52:00,
2013-09-15 14:02:00,67.0,47.0,-100.00,ESE,102,8.0,20.0,48,0.00,,,0.00,548.000000,,2013-09-15 20:02:00,
2013-09-15 14:42:00,66.0,45.0,-100.00,SSE,154,13.0,22.0,47,0.00,,,0.00,418.000000,,2013-09-15 20:42:00,
2013-09-15 14:53:00,66.0,45.0,-100.00,SSE,154,13.0,22.0,47,0.00,,,0.00,418.000000,,2013-09-15 20:53:00,
2013-09-15 15:02:00,66.0,45.0,-100.00,SSE,154,13.0,22.0,47,0.00,,,0.00,418.000000,,2013-09-15 21:02:00,
2013-09-15 15:44:00,68.0,45.0,-100.00,SSE,161,11.0,19.0,43,0.00,,,0.00,349.000000,,2013-09-15 21:44:00,
2013-09-15 15:54:00,68.0,45.0,-100.00,SSE,161,11.0,19.0,43,0.00,,,0.00,349.000000,,2013-09-15 21:54:00,
2013-09-15 16:04:00,68.0,45.0,-100.00,SSE,161,11.0,19.0,43,0.00,,,0.00,349.000000,,2013-09-15 22:04:00,
2013-09-15 16:44:00,69.0,46.0,-100.00,SSE,167,10.0,16.0,43,0.00,,,0.00,399.000000,,2013-09-15 22:44:00,
2013-09-15 16:53:00,69.0,46.0,-100.00,SSE,167,10.0,16.0,43,0.00,,,0.00,399.000000,,2013-09-15 22:53:00,
2013-09-15 17:02:00,69.0,46.0,-100.00,SSE,167,10.0,16.0,43,0.00,,,0.00,399.000000,,2013-09-15 23:02:00,
2013-09-15 17:42:00,66.0,43.0,-100.00,South,190,12.0,24.0,44,0.00,,,0.00,117.000000,,2013-09-15 23:42:00,
2013-09-15 17:52:00,66.0,43.0,-100.00,South,190,12.0,24.0,44,0.00,,,0.00,117.000000,,2013-09-15 23:52:00,
2013-09-15 18:01:00,66.0,43.0,-100.00,South,190,12.0,24.0,44,0.00,,,0.00,117.000000,,2013-09-16 00:01:00,
2013-09-15 18:42:00,70.0,45.0,-100.00,ESE,103,4.0,11.0,41,0.00,,,0.00,210.000000,,2013-09-16 00:42:00,
2013-09-15 18:52:00,70.0,45.0,-100.00,ESE,103,4.0,11.0,41,0.00,,,0.00,210.000000,,2013-09-16 00:52:00,
2013-09-15 19:02:00,70.0,45.0,-100.00,ESE,103,4.0,11.0,41,0.00,,,0.00,210.000000,,2013-09-16 01:02:00,
2013-09-15 19:42:00,64.0,44.0,-100.00,ESE,116,14.0,20.0,48,0.00,,,0.00,190.000000,,2013-09-16 01:42:00,
2013-09-15 19:52:00,64.0,44.0,-100.00,ESE,116,14.0,20.0,48,0.00,,,0.00,190.000000,,2013-09-16 01:52:00,
2013-09-15 20:02:00,64.0,44.0,-100.00,ESE,116,14.0,20.0,48,0.00,,,0.00,190.000000,,2013-09-16 02:02:00,
2013-09-15 20:42:00,61.0,47.0,-100.00,East,95,9.0,19.0,59,0.00,,,0.00,15.000000,,2013-09-16 02:42:00,
2013-09-15 20:52:00,61.0,47.0,-100.00,East,95,9.0,19.0,59,0.00,,,0.00,15.000000,,2013-09-16 02:52:00,
2013-09-15 21:02:00,61.0,47.0,-100.00,East,95,9.0,19.0,59,0.00,,,0.00,15.000000,,2013-09-16 03:02:00,
2013-09-15 21:45:00,59.0,45.0,-100.00,East,80,9.0,19.0,59,0.00,,,0.00,0.000000,,2013-09-16 03:45:00,
2013-09-15 21:55:00,59.0,45.0,-100.00,East,80,9.0,19.0,59,0.00,,,0.00,0.000000,,2013-09-16 03:55:00,
2013-09-15 22:05:00,59.0,45.0,-100.00,East,80,9.0,19.0,59,0.00,,,0.00,0.000000,,2013-09-16 04:05:00,
2013-09-15 22:43:00,59.0,46.0,-100.00,ENE,70,6.0,15.0,62,0.00,,,0.00,0.000000,,2013-09-16 04:43:00,
2013-09-15 22:54:00,59.0,46.0,-100.00,ENE,70,6.0,15.0,62,0.00,,,0.00,0.000000,,2013-09-16 04:54:00,
2013-09-15 23:03:00,59.0,46.0,-100.00,ENE,70,6.0,15.0,62,0.00,,,0.00,0.000000,,2013-09-16 05:03:00,
2013-09-15 23:44:00,58.0,44.0,-100.00,East,82,6.0,11.0,60,0.00,,,0.00,0.000000,,2013-09-16 05:44:00,
2013-09-15 23:53:00,58.0,44.0,-100.00,East,82,6.0,11.0,60,0.00,,,0.00,0.000000,,2013-09-16 05:53:00,